sensor_id;sensor_type;location;lat;lon;timestamp;P1;durP1;ratioP1;P2;durP2;ratioP2
27921;SDS011;15261;50.356;10.340;2022-09-12T00:01:04;8.60;;;6.72;;
27921;SDS011;15261;50.356;10.340;2022-09-12T00:03:32;8.07;;;7.28;;
27921;SDS011;15261;50.356;10.340;2022-09-12T00:05:58;7.68;;;7.03;;
27921;SDS011;15261;50.356;10.340;2022-09-12T00:08:23;7.63;;;6.88;;
27921;SDS011;15261;50.356;10.340;2022-09-12T00:10:49;7.18;;;6.57;;
27921;SDS011;15261;50.356;10.340;2022-09-12T00:13:14;7.07;;;6.47;;
27921;SDS011;15261;50.356;10.340;2022-09-12T00:15:41;8.18;;;7.38;;
27921;SDS011;15261;50.356;10.340;2022-09-12T00:18:09;7.10;;;6.50;;
27921;SDS011;15261;50.356;10.340;2022-09-12T00:20:42;8.32;;;6.82;;
27921;SDS011;15261;50.356;10.340;2022-09-12T00:23:09;7.50;;;6.80;;
27921;SDS011;15261;50.356;10.340;2022-09-12T00:25:42;7.47;;;6.78;;
27921;SDS011;15261;50.356;10.340;2022-09-12T00:28:09;7.38;;;6.60;;
27921;SDS011;15261;50.356;10.340;2022-09-12T00:30:39;13.15;;;7.93;;
27921;SDS011;15261;50.356;10.340;2022-09-12T00:33:08;8.15;;;7.38;;
27921;SDS011;15261;50.356;10.340;2022-09-12T00:35:45;7.55;;;6.93;;
27921;SDS011;15261;50.356;10.340;2022-09-12T00:38:13;8.73;;;7.72;;
27921;SDS011;15261;50.356;10.340;2022-09-12T00:40:40;7.80;;;7.03;;
27921;SDS011;15261;50.356;10.340;2022-09-12T00:43:10;7.43;;;6.82;;
27921;SDS011;15261;50.356;10.340;2022-09-12T00:45:37;7.18;;;6.57;;
27921;SDS011;15261;50.356;10.340;2022-09-12T00:48:03;10.40;;;7.65;;
27921;SDS011;15261;50.356;10.340;2022-09-12T00:50:29;8.18;;;7.35;;
27921;SDS011;15261;50.356;10.340;2022-09-12T00:52:58;8.70;;;7.20;;
27921;SDS011;15261;50.356;10.340;2022-09-12T00:55:37;8.57;;;7.30;;
27921;SDS011;15261;50.356;10.340;2022-09-12T01:01:10;9.73;;;8.20;;
27921;SDS011;15261;50.356;10.340;2022-09-12T01:03:36;9.27;;;8.02;;
27921;SDS011;15261;50.356;10.340;2022-09-12T01:08:45;8.38;;;7.68;;
27921;SDS011;15261;50.356;10.340;2022-09-12T01:11:12;10.73;;;8.70;;
27921;SDS011;15261;50.356;10.340;2022-09-12T01:13:39;9.23;;;8.30;;
27921;SDS011;15261;50.356;10.340;2022-09-12T01:16:06;8.27;;;7.47;;
27921;SDS011;15261;50.356;10.340;2022-09-12T01:40:37;19.35;;;7.50;;
27921;SDS011;15261;50.356;10.340;2022-09-12T01:48:49;8.40;;;7.53;;
27921;SDS011;15261;50.356;10.340;2022-09-12T01:54:01;8.43;;;7.63;;
27921;SDS011;15261;50.356;10.340;2022-09-12T01:56:34;8.10;;;7.45;;
27921;SDS011;15261;50.356;10.340;2022-09-12T01:59:05;8.70;;;7.35;;
27921;SDS011;15261;50.356;10.340;2022-09-12T02:02:02;8.95;;;8.15;;
27921;SDS011;15261;50.356;10.340;2022-09-12T02:04:43;8.23;;;7.50;;
27921;SDS011;15261;50.356;10.340;2022-09-12T02:07:19;9.23;;;7.57;;
27921;SDS011;15261;50.356;10.340;2022-09-12T02:10:05;8.30;;;7.50;;
27921;SDS011;15261;50.356;10.340;2022-09-12T02:12:37;9.13;;;8.32;;
27921;SDS011;15261;50.356;10.340;2022-09-12T02:15:10;8.90;;;8.00;;
27921;SDS011;15261;50.356;10.340;2022-09-12T02:17:37;8.95;;;8.05;;
27921;SDS011;15261;50.356;10.340;2022-09-12T02:20:19;12.60;;;8.10;;
27921;SDS011;15261;50.356;10.340;2022-09-12T02:22:53;27.55;;;7.60;;
27921;SDS011;15261;50.356;10.340;2022-09-12T02:25:21;31.00;;;8.00;;
27921;SDS011;15261;50.356;10.340;2022-09-12T02:27:51;11.98;;;7.57;;
27921;SDS011;15261;50.356;10.340;2022-09-12T02:30:25;8.65;;;7.75;;
27921;SDS011;15261;50.356;10.340;2022-09-12T02:33:14;8.57;;;7.53;;
27921;SDS011;15261;50.356;10.340;2022-09-12T02:36:02;16.98;;;8.70;;
27921;SDS011;15261;50.356;10.340;2022-09-12T02:38:44;33.67;;;10.00;;
27921;SDS011;15261;50.356;10.340;2022-09-12T02:41:12;52.78;;;10.27;;
27921;SDS011;15261;50.356;10.340;2022-09-12T02:43:41;9.75;;;8.73;;
27921;SDS011;15261;50.356;10.340;2022-09-12T02:46:08;12.32;;;8.30;;
27921;SDS011;15261;50.356;10.340;2022-09-12T02:48:40;9.60;;;7.63;;
27921;SDS011;15261;50.356;10.340;2022-09-12T02:51:07;26.73;;;7.45;;
27921;SDS011;15261;50.356;10.340;2022-09-12T02:53:34;25.40;;;7.55;;
27921;SDS011;15261;50.356;10.340;2022-09-12T02:56:00;30.25;;;8.70;;
27921;SDS011;15261;50.356;10.340;2022-09-12T02:58:28;48.17;;;9.50;;
27921;SDS011;15261;50.356;10.340;2022-09-12T03:01:14;54.83;;;9.75;;
27921;SDS011;15261;50.356;10.340;2022-09-12T03:21:18;18.27;;;9.00;;
27921;SDS011;15261;50.356;10.340;2022-09-12T03:29:19;7.20;;;6.60;;
27921;SDS011;15261;50.356;10.340;2022-09-12T03:31:52;8.27;;;7.03;;
27921;SDS011;15261;50.356;10.340;2022-09-12T03:34:20;7.65;;;7.05;;
27921;SDS011;15261;50.356;10.340;2022-09-12T03:36:47;8.05;;;7.00;;
27921;SDS011;15261;50.356;10.340;2022-09-12T03:39:13;17.25;;;8.55;;
27921;SDS011;15261;50.356;10.340;2022-09-12T03:41:39;9.60;;;8.52;;
27921;SDS011;15261;50.356;10.340;2022-09-12T03:44:05;10.18;;;8.82;;
27921;SDS011;15261;50.356;10.340;2022-09-12T03:46:30;8.75;;;8.00;;
27921;SDS011;15261;50.356;10.340;2022-09-12T03:48:56;8.45;;;7.75;;
27921;SDS011;15261;50.356;10.340;2022-09-12T03:51:22;8.88;;;7.65;;
27921;SDS011;15261;50.356;10.340;2022-09-12T03:53:47;9.45;;;8.27;;
27921;SDS011;15261;50.356;10.340;2022-09-12T03:56:13;8.18;;;7.47;;
27921;SDS011;15261;50.356;10.340;2022-09-12T03:58:39;9.82;;;7.07;;
27921;SDS011;15261;50.356;10.340;2022-09-12T04:01:06;7.60;;;6.80;;
27921;SDS011;15261;50.356;10.340;2022-09-12T04:03:36;7.63;;;6.93;;
27921;SDS011;15261;50.356;10.340;2022-09-12T04:06:02;7.45;;;6.75;;
27921;SDS011;15261;50.356;10.340;2022-09-12T04:08:28;7.30;;;6.70;;
27921;SDS011;15261;50.356;10.340;2022-09-12T04:10:54;7.72;;;7.03;;
27921;SDS011;15261;50.356;10.340;2022-09-12T04:13:27;7.50;;;6.82;;
27921;SDS011;15261;50.356;10.340;2022-09-12T04:15:59;7.50;;;6.65;;
27921;SDS011;15261;50.356;10.340;2022-09-12T04:18:25;7.65;;;6.53;;
27921;SDS011;15261;50.356;10.340;2022-09-12T04:20:51;8.63;;;6.53;;
27921;SDS011;15261;50.356;10.340;2022-09-12T04:23:17;10.32;;;6.68;;
27921;SDS011;15261;50.356;10.340;2022-09-12T04:25:42;7.25;;;6.05;;
27921;SDS011;15261;50.356;10.340;2022-09-12T04:28:08;7.20;;;6.10;;
27921;SDS011;15261;50.356;10.340;2022-09-12T04:30:33;10.95;;;6.78;;
27921;SDS011;15261;50.356;10.340;2022-09-12T04:32:59;7.00;;;6.30;;
27921;SDS011;15261;50.356;10.340;2022-09-12T04:35:25;6.93;;;6.35;;
27921;SDS011;15261;50.356;10.340;2022-09-12T04:37:51;6.72;;;6.22;;
27921;SDS011;15261;50.356;10.340;2022-09-12T04:40:17;7.07;;;6.47;;
27921;SDS011;15261;50.356;10.340;2022-09-12T04:42:42;8.60;;;6.70;;
27921;SDS011;15261;50.356;10.340;2022-09-12T04:45:08;13.50;;;6.97;;
27921;SDS011;15261;50.356;10.340;2022-09-12T04:47:34;16.48;;;7.47;;
27921;SDS011;15261;50.356;10.340;2022-09-12T04:50:00;21.05;;;7.72;;
27921;SDS011;15261;50.356;10.340;2022-09-12T04:52:26;32.13;;;7.30;;
27921;SDS011;15261;50.356;10.340;2022-09-12T04:54:51;24.67;;;7.15;;
27921;SDS011;15261;50.356;10.340;2022-09-12T04:57:17;15.85;;;6.95;;
27921;SDS011;15261;50.356;10.340;2022-09-12T04:59:43;37.60;;;7.20;;
27921;SDS011;15261;50.356;10.340;2022-09-12T05:02:08;29.25;;;7.85;;
27921;SDS011;15261;50.356;10.340;2022-09-12T05:04:34;10.90;;;7.68;;
27921;SDS011;15261;50.356;10.340;2022-09-12T05:10:07;36.72;;;7.97;;
27921;SDS011;15261;50.356;10.340;2022-09-12T05:12:33;13.07;;;6.40;;
27921;SDS011;15261;50.356;10.340;2022-09-12T05:15:00;6.57;;;6.05;;
27921;SDS011;15261;50.356;10.340;2022-09-12T05:17:27;5.50;;;5.00;;
27921;SDS011;15261;50.356;10.340;2022-09-12T05:19:53;5.40;;;5.00;;
27921;SDS011;15261;50.356;10.340;2022-09-12T05:22:19;5.72;;;4.72;;
27921;SDS011;15261;50.356;10.340;2022-09-12T05:24:45;5.28;;;4.78;;
27921;SDS011;15261;50.356;10.340;2022-09-12T05:27:12;7.95;;;5.43;;
27921;SDS011;15261;50.356;10.340;2022-09-12T05:29:38;9.30;;;5.28;;
27921;SDS011;15261;50.356;10.340;2022-09-12T05:32:03;6.47;;;5.50;;
27921;SDS011;15261;50.356;10.340;2022-09-12T05:34:29;8.88;;;5.65;;
27921;SDS011;15261;50.356;10.340;2022-09-12T05:36:55;9.15;;;6.55;;
27921;SDS011;15261;50.356;10.340;2022-09-12T05:39:20;15.15;;;7.40;;
27921;SDS011;15261;50.356;10.340;2022-09-12T05:41:46;6.75;;;6.15;;
27921;SDS011;15261;50.356;10.340;2022-09-12T05:44:12;6.85;;;6.20;;
27921;SDS011;15261;50.356;10.340;2022-09-12T05:46:39;6.07;;;5.57;;
27921;SDS011;15261;50.356;10.340;2022-09-12T05:49:08;15.52;;;6.15;;
27921;SDS011;15261;50.356;10.340;2022-09-12T05:51:36;7.28;;;5.60;;
27921;SDS011;15261;50.356;10.340;2022-09-12T05:54:05;7.03;;;6.00;;
27921;SDS011;15261;50.356;10.340;2022-09-12T05:56:32;7.55;;;5.60;;
27921;SDS011;15261;50.356;10.340;2022-09-12T05:59:04;6.57;;;5.43;;
27921;SDS011;15261;50.356;10.340;2022-09-12T06:01:40;7.03;;;6.32;;
27921;SDS011;15261;50.356;10.340;2022-09-12T06:04:07;8.68;;;6.40;;
27921;SDS011;15261;50.356;10.340;2022-09-12T06:06:34;10.02;;;7.07;;
27921;SDS011;15261;50.356;10.340;2022-09-12T06:09:02;8.55;;;7.03;;
27921;SDS011;15261;50.356;10.340;2022-09-12T06:11:30;8.60;;;6.03;;
27921;SDS011;15261;50.356;10.340;2022-09-12T06:14:01;9.48;;;6.50;;
27921;SDS011;15261;50.356;10.340;2022-09-12T06:16:28;12.02;;;7.40;;
27921;SDS011;15261;50.356;10.340;2022-09-12T06:18:56;23.05;;;7.63;;
27921;SDS011;15261;50.356;10.340;2022-09-12T06:21:23;14.73;;;7.95;;
27921;SDS011;15261;50.356;10.340;2022-09-12T06:23:52;23.35;;;9.38;;
27921;SDS011;15261;50.356;10.340;2022-09-12T06:26:21;29.58;;;9.82;;
27921;SDS011;15261;50.356;10.340;2022-09-12T06:28:49;17.30;;;9.57;;
27921;SDS011;15261;50.356;10.340;2022-09-12T06:31:18;12.25;;;8.90;;
27921;SDS011;15261;50.356;10.340;2022-09-12T06:33:46;12.07;;;8.40;;
27921;SDS011;15261;50.356;10.340;2022-09-12T06:36:20;16.50;;;9.15;;
27921;SDS011;15261;50.356;10.340;2022-09-12T06:38:57;14.05;;;10.07;;
27921;SDS011;15261;50.356;10.340;2022-09-12T06:41:25;20.40;;;9.57;;
27921;SDS011;15261;50.356;10.340;2022-09-12T06:43:51;13.70;;;9.15;;
27921;SDS011;15261;50.356;10.340;2022-09-12T06:46:18;20.40;;;10.77;;
27921;SDS011;15261;50.356;10.340;2022-09-12T06:48:44;12.60;;;9.43;;
27921;SDS011;15261;50.356;10.340;2022-09-12T06:51:11;14.73;;;10.25;;
27921;SDS011;15261;50.356;10.340;2022-09-12T06:53:38;14.00;;;9.98;;
27921;SDS011;15261;50.356;10.340;2022-09-12T06:56:09;17.27;;;10.75;;
27921;SDS011;15261;50.356;10.340;2022-09-12T06:58:35;29.20;;;11.38;;
27921;SDS011;15261;50.356;10.340;2022-09-12T07:01:02;42.28;;;10.65;;
27921;SDS011;15261;50.356;10.340;2022-09-12T07:03:30;33.38;;;11.35;;
27921;SDS011;15261;50.356;10.340;2022-09-12T07:05:56;18.40;;;10.55;;
27921;SDS011;15261;50.356;10.340;2022-09-12T07:08:26;12.18;;;10.63;;
27921;SDS011;15261;50.356;10.340;2022-09-12T07:10:53;11.00;;;9.90;;
27921;SDS011;15261;50.356;10.340;2022-09-12T07:13:24;11.02;;;9.90;;
27921;SDS011;15261;50.356;10.340;2022-09-12T07:16:08;13.02;;;10.45;;
27921;SDS011;15261;50.356;10.340;2022-09-12T07:18:35;12.13;;;10.60;;
27921;SDS011;15261;50.356;10.340;2022-09-12T07:21:06;13.23;;;11.00;;
27921;SDS011;15261;50.356;10.340;2022-09-12T07:23:34;13.27;;;11.05;;
27921;SDS011;15261;50.356;10.340;2022-09-12T07:26:02;16.63;;;10.27;;
27921;SDS011;15261;50.356;10.340;2022-09-12T07:28:29;18.45;;;10.85;;
27921;SDS011;15261;50.356;10.340;2022-09-12T07:30:56;16.25;;;11.30;;
27921;SDS011;15261;50.356;10.340;2022-09-12T07:33:23;11.80;;;10.70;;
27921;SDS011;15261;50.356;10.340;2022-09-12T07:38:26;12.18;;;10.48;;
27921;SDS011;15261;50.356;10.340;2022-09-12T07:40:51;15.10;;;10.35;;
27921;SDS011;15261;50.356;10.340;2022-09-12T07:43:17;13.65;;;10.35;;
27921;SDS011;15261;50.356;10.340;2022-09-12T07:48:28;14.48;;;10.35;;
27921;SDS011;15261;50.356;10.340;2022-09-12T07:50:57;11.25;;;9.40;;
27921;SDS011;15261;50.356;10.340;2022-09-12T07:53:35;13.43;;;10.05;;
27921;SDS011;15261;50.356;10.340;2022-09-12T07:56:17;10.50;;;9.55;;
27921;SDS011;15261;50.356;10.340;2022-09-12T07:58:44;10.32;;;9.43;;
27921;SDS011;15261;50.356;10.340;2022-09-12T08:01:12;9.77;;;8.82;;
27921;SDS011;15261;50.356;10.340;2022-09-12T08:03:48;10.15;;;9.23;;
27921;SDS011;15261;50.356;10.340;2022-09-12T08:06:18;9.82;;;8.82;;
27921;SDS011;15261;50.356;10.340;2022-09-12T08:08:45;9.18;;;8.38;;
27921;SDS011;15261;50.356;10.340;2022-09-12T08:11:12;10.00;;;9.00;;
27921;SDS011;15261;50.356;10.340;2022-09-12T08:13:40;9.70;;;8.52;;
27921;SDS011;15261;50.356;10.340;2022-09-12T08:16:07;13.23;;;8.90;;
27921;SDS011;15261;50.356;10.340;2022-09-12T08:18:42;9.38;;;8.57;;
27921;SDS011;15261;50.356;10.340;2022-09-12T08:21:12;9.55;;;8.65;;
27921;SDS011;15261;50.356;10.340;2022-09-12T08:23:40;9.90;;;9.00;;
27921;SDS011;15261;50.356;10.340;2022-09-12T08:26:08;10.95;;;9.10;;
27921;SDS011;15261;50.356;10.340;2022-09-12T08:28:34;10.30;;;9.30;;
27921;SDS011;15261;50.356;10.340;2022-09-12T08:31:11;8.88;;;8.07;;
27921;SDS011;15261;50.356;10.340;2022-09-12T08:33:57;10.25;;;9.35;;
27921;SDS011;15261;50.356;10.340;2022-09-12T08:36:24;9.82;;;8.82;;
27921;SDS011;15261;50.356;10.340;2022-09-12T08:39:10;9.95;;;8.93;;
27921;SDS011;15261;50.356;10.340;2022-09-12T09:09:52;11.38;;;10.38;;
27921;SDS011;15261;50.356;10.340;2022-09-12T09:18:38;11.73;;;10.60;;
27921;SDS011;15261;50.356;10.340;2022-09-12T09:24:13;14.65;;;11.55;;
27921;SDS011;15261;50.356;10.340;2022-09-12T09:29:53;15.10;;;12.25;;
27921;SDS011;15261;50.356;10.340;2022-09-12T09:35:45;14.98;;;13.60;;
27921;SDS011;15261;50.356;10.340;2022-09-12T09:40:44;20.60;;;12.45;;
27921;SDS011;15261;50.356;10.340;2022-09-12T09:46:09;18.13;;;13.38;;
27921;SDS011;15261;50.356;10.340;2022-09-12T09:48:36;56.10;;;32.47;;
27921;SDS011;15261;50.356;10.340;2022-09-12T09:51:17;13.98;;;10.05;;
27921;SDS011;15261;50.356;10.340;2022-09-12T09:53:54;17.40;;;12.45;;
27921;SDS011;15261;50.356;10.340;2022-09-12T10:05:49;11.18;;;6.88;;
27921;SDS011;15261;50.356;10.340;2022-09-12T10:16:19;6.38;;;5.78;;
27921;SDS011;15261;50.356;10.340;2022-09-12T10:18:50;6.93;;;6.32;;
27921;SDS011;15261;50.356;10.340;2022-09-12T10:21:18;7.13;;;5.45;;
27921;SDS011;15261;50.356;10.340;2022-09-12T10:29:48;6.25;;;5.25;;
27921;SDS011;15261;50.356;10.340;2022-09-12T10:32:26;5.22;;;4.72;;
27921;SDS011;15261;50.356;10.340;2022-09-12T10:38:02;7.00;;;6.50;;
27921;SDS011;15261;50.356;10.340;2022-09-12T10:40:40;5.22;;;4.75;;
27921;SDS011;15261;50.356;10.340;2022-09-12T10:43:28;14.82;;;5.30;;
27921;SDS011;15261;50.356;10.340;2022-09-12T10:49:18;4.65;;;4.25;;
27921;SDS011;15261;50.356;10.340;2022-09-12T10:51:47;3.83;;;3.53;;
27921;SDS011;15261;50.356;10.340;2022-09-12T10:54:25;4.20;;;3.72;;
27921;SDS011;15261;50.356;10.340;2022-09-12T10:56:55;3.90;;;3.60;;
27921;SDS011;15261;50.356;10.340;2022-09-12T11:09:04;11.70;;;4.30;;
27921;SDS011;15261;50.356;10.340;2022-09-12T11:14:40;2.60;;;2.40;;
27921;SDS011;15261;50.356;10.340;2022-09-12T11:23:21;4.65;;;2.25;;
27921;SDS011;15261;50.356;10.340;2022-09-12T11:38:11;2.58;;;2.38;;
27921;SDS011;15261;50.356;10.340;2022-09-12T11:41:11;3.05;;;2.72;;
27921;SDS011;15261;50.356;10.340;2022-09-12T11:57:47;3.28;;;2.60;;
27921;SDS011;15261;50.356;10.340;2022-09-12T12:08:49;4.53;;;2.90;;
27921;SDS011;15261;50.356;10.340;2022-09-12T12:14:23;5.65;;;2.97;;
27921;SDS011;15261;50.356;10.340;2022-09-12T12:16:54;3.90;;;2.30;;
27921;SDS011;15261;50.356;10.340;2022-09-12T12:19:26;2.60;;;2.40;;
27921;SDS011;15261;50.356;10.340;2022-09-12T12:38:42;2.63;;;2.42;;
27921;SDS011;15261;50.356;10.340;2022-09-12T12:53:49;4.25;;;3.20;;
27921;SDS011;15261;50.356;10.340;2022-09-12T12:59:18;3.08;;;2.88;;
27921;SDS011;15261;50.356;10.340;2022-09-12T13:11:09;2.90;;;2.67;;
27921;SDS011;15261;50.356;10.340;2022-09-12T13:17:12;2.72;;;2.53;;
27921;SDS011;15261;50.356;10.340;2022-09-12T13:23:01;2.50;;;2.30;;
27921;SDS011;15261;50.356;10.340;2022-09-12T13:28:05;7.80;;;2.70;;
27921;SDS011;15261;50.356;10.340;2022-09-12T13:31:14;5.13;;;2.63;;
27921;SDS011;15261;50.356;10.340;2022-09-12T13:33:52;5.32;;;2.80;;
27921;SDS011;15261;50.356;10.340;2022-09-12T13:39:47;2.63;;;2.42;;
27921;SDS011;15261;50.356;10.340;2022-09-12T13:42:39;3.08;;;2.40;;
27921;SDS011;15261;50.356;10.340;2022-09-12T13:45:23;3.05;;;2.85;;
27921;SDS011;15261;50.356;10.340;2022-09-12T13:47:53;4.00;;;2.80;;
27921;SDS011;15261;50.356;10.340;2022-09-12T13:50:26;2.95;;;2.63;;
27921;SDS011;15261;50.356;10.340;2022-09-12T13:52:56;2.78;;;2.53;;
27921;SDS011;15261;50.356;10.340;2022-09-12T13:55:33;2.97;;;2.65;;
27921;SDS011;15261;50.356;10.340;2022-09-12T13:58:03;2.60;;;2.40;;
27921;SDS011;15261;50.356;10.340;2022-09-12T14:00:31;2.85;;;2.60;;
27921;SDS011;15261;50.356;10.340;2022-09-12T14:02:59;3.08;;;2.88;;
27921;SDS011;15261;50.356;10.340;2022-09-12T14:05:45;2.50;;;2.40;;
27921;SDS011;15261;50.356;10.340;2022-09-12T14:08:20;3.03;;;2.83;;
27921;SDS011;15261;50.356;10.340;2022-09-12T14:17:26;3.40;;;2.55;;
27921;SDS011;15261;50.356;10.340;2022-09-12T14:23:01;4.85;;;2.80;;
27921;SDS011;15261;50.356;10.340;2022-09-12T14:25:38;4.20;;;3.10;;
27921;SDS011;15261;50.356;10.340;2022-09-12T14:28:05;2.83;;;2.63;;
27921;SDS011;15261;50.356;10.340;2022-09-12T14:30:36;4.28;;;2.80;;
27921;SDS011;15261;50.356;10.340;2022-09-12T14:42:15;4.35;;;3.00;;
27921;SDS011;15261;50.356;10.340;2022-09-12T14:47:46;4.43;;;2.80;;
27921;SDS011;15261;50.356;10.340;2022-09-12T14:50:23;3.13;;;2.72;;
27921;SDS011;15261;50.356;10.340;2022-09-12T14:53:19;3.05;;;2.70;;
27921;SDS011;15261;50.356;10.340;2022-09-12T14:59:18;3.13;;;2.70;;
27921;SDS011;15261;50.356;10.340;2022-09-12T15:08:01;2.50;;;2.40;;
27921;SDS011;15261;50.356;10.340;2022-09-12T15:10:28;6.30;;;2.85;;
27921;SDS011;15261;50.356;10.340;2022-09-12T15:13:09;4.05;;;2.90;;
27921;SDS011;15261;50.356;10.340;2022-09-12T15:15:41;3.15;;;2.67;;
27921;SDS011;15261;50.356;10.340;2022-09-12T15:18:08;6.00;;;2.75;;
27921;SDS011;15261;50.356;10.340;2022-09-12T15:20:35;2.85;;;2.65;;
27921;SDS011;15261;50.356;10.340;2022-09-12T15:23:02;4.18;;;3.20;;
27921;SDS011;15261;50.356;10.340;2022-09-12T15:25:31;11.65;;;3.17;;
27921;SDS011;15261;50.356;10.340;2022-09-12T15:30:43;3.22;;;2.92;;
27921;SDS011;15261;50.356;10.340;2022-09-12T15:33:21;3.10;;;2.90;;
27921;SDS011;15261;50.356;10.340;2022-09-12T15:35:48;3.05;;;2.85;;
27921;SDS011;15261;50.356;10.340;2022-09-12T15:38:17;3.80;;;3.08;;
27921;SDS011;15261;50.356;10.340;2022-09-12T15:40:43;4.03;;;3.28;;
27921;SDS011;15261;50.356;10.340;2022-09-12T15:45:49;3.47;;;3.17;;
27921;SDS011;15261;50.356;10.340;2022-09-12T15:51:10;3.50;;;3.20;;
27921;SDS011;15261;50.356;10.340;2022-09-12T15:53:54;3.25;;;2.95;;
27921;SDS011;15261;50.356;10.340;2022-09-12T15:56:20;5.30;;;3.25;;
27921;SDS011;15261;50.356;10.340;2022-09-12T15:58:48;7.15;;;3.03;;
27921;SDS011;15261;50.356;10.340;2022-09-12T16:01:20;8.35;;;3.15;;
27921;SDS011;15261;50.356;10.340;2022-09-12T16:03:46;4.45;;;3.42;;
27921;SDS011;15261;50.356;10.340;2022-09-12T16:06:12;6.07;;;3.30;;
27921;SDS011;15261;50.356;10.340;2022-09-12T16:08:39;4.05;;;3.42;;
27921;SDS011;15261;50.356;10.340;2022-09-12T16:11:23;3.60;;;3.30;;
27921;SDS011;15261;50.356;10.340;2022-09-12T16:13:53;3.92;;;3.63;;
27921;SDS011;15261;50.356;10.340;2022-09-12T16:16:23;3.80;;;3.47;;
27921;SDS011;15261;50.356;10.340;2022-09-12T16:18:49;5.15;;;3.65;;
27921;SDS011;15261;50.356;10.340;2022-09-12T16:21:14;4.78;;;3.10;;
27921;SDS011;15261;50.356;10.340;2022-09-12T16:23:46;4.32;;;3.78;;
27921;SDS011;15261;50.356;10.340;2022-09-12T16:26:12;5.78;;;3.10;;
27921;SDS011;15261;50.356;10.340;2022-09-12T16:28:38;5.88;;;3.22;;
27921;SDS011;15261;50.356;10.340;2022-09-12T16:31:05;4.55;;;3.50;;
27921;SDS011;15261;50.356;10.340;2022-09-12T16:33:32;6.18;;;3.15;;
27921;SDS011;15261;50.356;10.340;2022-09-12T16:36:05;3.33;;;3.08;;
27921;SDS011;15261;50.356;10.340;2022-09-12T16:38:33;3.65;;;3.30;;
27921;SDS011;15261;50.356;10.340;2022-09-12T16:41:05;3.40;;;3.20;;
27921;SDS011;15261;50.356;10.340;2022-09-12T16:43:40;4.05;;;3.75;;
27921;SDS011;15261;50.356;10.340;2022-09-12T16:46:11;3.35;;;3.15;;
27921;SDS011;15261;50.356;10.340;2022-09-12T16:51:35;7.95;;;3.65;;
27921;SDS011;15261;50.356;10.340;2022-09-12T16:54:00;5.43;;;3.90;;
27921;SDS011;15261;50.356;10.340;2022-09-12T16:56:26;4.63;;;3.90;;
27921;SDS011;15261;50.356;10.340;2022-09-12T16:58:52;9.68;;;3.67;;
27921;SDS011;15261;50.356;10.340;2022-09-12T17:01:19;7.53;;;3.53;;
27921;SDS011;15261;50.356;10.340;2022-09-12T17:03:53;5.63;;;3.63;;
27921;SDS011;15261;50.356;10.340;2022-09-12T17:06:20;4.05;;;3.75;;
27921;SDS011;15261;50.356;10.340;2022-09-12T17:08:47;5.50;;;3.65;;
27921;SDS011;15261;50.356;10.340;2022-09-12T17:11:21;4.03;;;3.70;;
27921;SDS011;15261;50.356;10.340;2022-09-12T17:13:52;8.55;;;3.88;;
27921;SDS011;15261;50.356;10.340;2022-09-12T17:16:19;5.32;;;3.80;;
27921;SDS011;15261;50.356;10.340;2022-09-12T17:18:45;4.03;;;3.63;;
27921;SDS011;15261;50.356;10.340;2022-09-12T17:21:11;4.45;;;3.63;;
27921;SDS011;15261;50.356;10.340;2022-09-12T17:23:37;5.07;;;3.75;;
27921;SDS011;15261;50.356;10.340;2022-09-12T17:26:03;4.47;;;3.70;;
27921;SDS011;15261;50.356;10.340;2022-09-12T17:28:29;4.07;;;3.72;;
27921;SDS011;15261;50.356;10.340;2022-09-12T17:30:56;4.10;;;3.55;;
27921;SDS011;15261;50.356;10.340;2022-09-12T17:33:23;4.28;;;3.88;;
27921;SDS011;15261;50.356;10.340;2022-09-12T17:35:49;10.57;;;3.95;;
27921;SDS011;15261;50.356;10.340;2022-09-12T17:38:15;8.65;;;4.60;;
27921;SDS011;15261;50.356;10.340;2022-09-12T17:40:41;9.02;;;4.70;;
27921;SDS011;15261;50.356;10.340;2022-09-12T17:43:09;4.75;;;4.35;;
27921;SDS011;15261;50.356;10.340;2022-09-12T17:45:35;5.55;;;4.40;;
27921;SDS011;15261;50.356;10.340;2022-09-12T17:48:01;4.57;;;4.18;;
27921;SDS011;15261;50.356;10.340;2022-09-12T17:50:27;6.63;;;4.63;;
27921;SDS011;15261;50.356;10.340;2022-09-12T17:52:53;4.80;;;4.25;;
27921;SDS011;15261;50.356;10.340;2022-09-12T17:55:19;4.65;;;4.15;;
27921;SDS011;15261;50.356;10.340;2022-09-12T17:57:45;5.00;;;4.60;;
27921;SDS011;15261;50.356;10.340;2022-09-12T18:00:10;6.47;;;4.18;;
27921;SDS011;15261;50.356;10.340;2022-09-12T18:02:36;6.72;;;4.40;;
27921;SDS011;15261;50.356;10.340;2022-09-12T18:05:03;6.82;;;4.47;;
27921;SDS011;15261;50.356;10.340;2022-09-12T18:07:29;6.90;;;4.68;;
27921;SDS011;15261;50.356;10.340;2022-09-12T18:09:56;7.95;;;4.28;;
27921;SDS011;15261;50.356;10.340;2022-09-12T18:12:22;4.75;;;4.28;;
27921;SDS011;15261;50.356;10.340;2022-09-12T18:14:48;4.97;;;4.38;;
27921;SDS011;15261;50.356;10.340;2022-09-12T18:17:14;5.30;;;4.80;;
27921;SDS011;15261;50.356;10.340;2022-09-12T18:19:40;6.78;;;4.57;;
27921;SDS011;15261;50.356;10.340;2022-09-12T18:22:06;4.93;;;4.50;;
27921;SDS011;15261;50.356;10.340;2022-09-12T18:24:31;5.82;;;4.75;;
27921;SDS011;15261;50.356;10.340;2022-09-12T18:26:57;5.18;;;4.65;;
27921;SDS011;15261;50.356;10.340;2022-09-12T18:29:23;5.95;;;5.20;;
27921;SDS011;15261;50.356;10.340;2022-09-12T18:31:51;5.72;;;4.43;;
27921;SDS011;15261;50.356;10.340;2022-09-12T18:34:17;5.40;;;4.90;;
27921;SDS011;15261;50.356;10.340;2022-09-12T18:36:44;5.88;;;5.28;;
27921;SDS011;15261;50.356;10.340;2022-09-12T18:41:45;5.40;;;4.90;;
27921;SDS011;15261;50.356;10.340;2022-09-12T18:44:11;10.73;;;4.63;;
27921;SDS011;15261;50.356;10.340;2022-09-12T18:46:37;5.47;;;4.70;;
27921;SDS011;15261;50.356;10.340;2022-09-12T18:49:03;5.45;;;5.05;;
27921;SDS011;15261;50.356;10.340;2022-09-12T18:51:30;7.00;;;5.20;;
27921;SDS011;15261;50.356;10.340;2022-09-12T18:54:00;8.00;;;6.30;;
27921;SDS011;15261;50.356;10.340;2022-09-12T18:56:31;6.45;;;5.85;;
27921;SDS011;15261;50.356;10.340;2022-09-12T18:58:59;5.75;;;5.25;;
27921;SDS011;15261;50.356;10.340;2022-09-12T19:04:33;5.78;;;5.20;;
27921;SDS011;15261;50.356;10.340;2022-09-12T19:06:58;5.38;;;4.85;;
27921;SDS011;15261;50.356;10.340;2022-09-12T19:12:53;5.45;;;5.05;;
27921;SDS011;15261;50.356;10.340;2022-09-12T19:15:19;5.90;;;5.40;;
27921;SDS011;15261;50.356;10.340;2022-09-12T19:17:45;6.65;;;5.50;;
27921;SDS011;15261;50.356;10.340;2022-09-12T19:20:13;5.97;;;5.47;;
27921;SDS011;15261;50.356;10.340;2022-09-12T19:22:38;6.20;;;5.70;;
27921;SDS011;15261;50.356;10.340;2022-09-12T19:25:04;6.10;;;5.53;;
27921;SDS011;15261;50.356;10.340;2022-09-12T19:27:30;6.47;;;5.22;;
27921;SDS011;15261;50.356;10.340;2022-09-12T19:29:55;6.13;;;5.53;;
27921;SDS011;15261;50.356;10.340;2022-09-12T19:32:21;7.65;;;5.65;;
27921;SDS011;15261;50.356;10.340;2022-09-12T19:38:08;6.35;;;5.30;;
27921;SDS011;15261;50.356;10.340;2022-09-12T19:40:33;8.30;;;5.55;;
27921;SDS011;15261;50.356;10.340;2022-09-12T19:42:59;6.80;;;5.38;;
27921;SDS011;15261;50.356;10.340;2022-09-12T19:45:24;7.75;;;5.53;;
27921;SDS011;15261;50.356;10.340;2022-09-12T19:47:50;6.30;;;5.70;;
27921;SDS011;15261;50.356;10.340;2022-09-12T19:53:01;7.05;;;5.68;;
27921;SDS011;15261;50.356;10.340;2022-09-12T19:55:29;11.30;;;5.57;;
27921;SDS011;15261;50.356;10.340;2022-09-12T19:57:55;5.90;;;5.40;;